createdAt,value
2023-03-08T00:02:25.073Z,76.92
2023-03-08T00:04:55.771Z,78.16
2023-03-08T00:07:24.128Z,76.79
2023-03-08T00:09:51.436Z,75.13
2023-03-08T00:12:20.152Z,76.29
2023-03-08T00:14:47.276Z,75.38
2023-03-08T00:17:14.375Z,74.65
2023-03-08T00:19:41.598Z,72.27
2023-03-08T00:22:08.729Z,71.74
2023-03-08T00:24:35.855Z,71.50
2023-03-08T00:27:03.274Z,71.82
2023-03-08T00:29:31.291Z,71.34
2023-03-08T00:31:58.345Z,74.78
2023-03-08T00:34:25.450Z,75.63
2023-03-08T00:36:52.664Z,75.97
2023-03-08T00:39:19.899Z,75.75
2023-03-08T00:41:47.047Z,75.90
2023-03-08T00:44:14.136Z,76.77
2023-03-08T00:46:41.247Z,77.12
2023-03-08T00:49:08.469Z,76.72
2023-03-08T00:51:35.487Z,78.89
2023-03-08T00:54:02.733Z,79.22
2023-03-08T00:56:29.804Z,78.66
2023-03-08T00:58:57.214Z,77.94
2023-03-08T01:01:24.470Z,79.05
2023-03-08T01:03:52.632Z,79.21
2023-03-08T01:06:19.703Z,79.75
2023-03-08T01:08:47.202Z,84.65
2023-03-08T01:11:24.144Z,86.02
2023-03-08T01:13:52.369Z,82.18
2023-03-08T01:16:25.309Z,82.13
2023-03-08T01:18:52.915Z,84.52
2023-03-08T01:21:21.050Z,84.81
2023-03-08T01:23:48.821Z,80.73
2023-03-08T01:26:19.742Z,79.45
2023-03-08T01:28:47.444Z,80.12
2023-03-08T01:31:24.166Z,80.74
2023-03-08T01:33:53.676Z,79.58
2023-03-08T01:36:23.600Z,81.47
2023-03-08T01:38:51.808Z,83.20
2023-03-08T01:41:22.453Z,82.41
2023-03-08T01:43:50.796Z,83.11
2023-03-08T01:46:20.503Z,81.93
2023-03-08T01:49:11.862Z,80.63
2023-03-08T01:51:41.551Z,80.83
2023-03-08T01:54:30.719Z,81.00
2023-03-08T01:57:03.220Z,81.16
2023-03-08T01:59:34.294Z,79.49
2023-03-08T02:02:02.616Z,80.21
2023-03-08T02:04:31.550Z,80.40
2023-03-08T02:06:59.269Z,80.18
2023-03-08T02:09:27.453Z,79.17
2023-03-08T02:11:59.321Z,88.93
2023-03-08T02:14:27.112Z,97.54
2023-03-08T02:16:55.040Z,100.00
2023-03-08T02:19:57.925Z,100.00
2023-03-08T02:22:25.168Z,100.00
2023-03-08T02:24:52.345Z,100.00
2023-03-08T02:27:26.222Z,97.30
2023-03-08T02:29:54.475Z,93.75
2023-03-08T02:32:23.510Z,93.10
2023-03-08T02:34:50.651Z,91.58
2023-03-08T02:37:17.799Z,91.07
2023-03-08T02:39:48.080Z,91.88
2023-03-08T02:42:15.285Z,90.45
2023-03-08T02:44:43.229Z,90.06
2023-03-08T02:47:10.457Z,89.61
2023-03-08T02:49:37.716Z,89.21
2023-03-08T02:52:05.040Z,89.25
2023-03-08T02:54:32.117Z,89.04
2023-03-08T02:56:59.337Z,90.46
2023-03-08T02:59:27.068Z,88.95
2023-03-08T03:01:55.835Z,86.79
2023-03-08T03:04:23.302Z,86.12
2023-03-08T03:06:50.547Z,87.35
2023-03-08T03:09:17.720Z,88.47
2023-03-08T03:11:45.193Z,91.29
2023-03-08T03:14:13.134Z,91.99
2023-03-08T03:16:43.154Z,90.91
2023-03-08T03:19:11.940Z,91.34
2023-03-08T03:21:40.191Z,90.77
2023-03-08T03:24:07.972Z,89.01
2023-03-08T03:26:53.245Z,89.23
2023-03-08T03:29:22.502Z,90.80
2023-03-08T03:31:55.219Z,89.66
2023-03-08T03:34:23.019Z,90.38
2023-03-08T03:36:51.227Z,88.82
2023-03-08T03:39:18.679Z,87.88
2023-03-08T03:41:48.492Z,87.23
2023-03-08T03:44:16.057Z,87.06
2023-03-08T03:46:45.355Z,85.80
2023-03-08T03:49:15.545Z,85.54
2023-03-08T03:51:44.984Z,87.13
2023-03-08T03:54:18.232Z,87.26
2023-03-08T03:56:47.192Z,86.67
2023-03-08T03:59:14.420Z,86.73
2023-03-08T04:01:42.317Z,86.73
2023-03-08T04:04:35.565Z,87.00
2023-03-08T04:07:03.677Z,85.17
2023-03-08T04:09:36.165Z,85.21
2023-03-08T04:12:09.186Z,84.93
2023-03-08T04:14:40.455Z,84.93
2023-03-08T04:17:09.389Z,87.16
2023-03-08T04:19:44.480Z,89.30
2023-03-08T04:22:13.388Z,91.73
2023-03-08T04:24:48.604Z,92.43
2023-03-08T04:27:21.115Z,90.46
2023-03-08T04:29:48.612Z,90.71
2023-03-08T04:32:16.440Z,89.66
2023-03-08T04:34:48.570Z,90.42
2023-03-08T04:37:19.373Z,92.03
2023-03-08T04:39:50.159Z,91.07
2023-03-08T04:42:17.900Z,90.30
2023-03-08T04:44:46.266Z,88.46
2023-03-08T04:47:16.725Z,85.22
2023-03-08T04:49:45.565Z,83.52
2023-03-08T04:52:13.376Z,80.59
2023-03-08T04:54:41.750Z,79.67
2023-03-08T04:57:17.719Z,77.38
2023-03-08T04:59:45.684Z,72.45
2023-03-08T05:02:14.426Z,66.96
2023-03-08T05:04:42.388Z,63.61
2023-03-08T05:07:09.608Z,68.43
2023-03-08T05:09:37.737Z,71.59
2023-03-08T05:12:05.082Z,73.79
2023-03-08T05:14:51.725Z,71.61
2023-03-08T05:17:20.660Z,68.98
2023-03-08T05:19:47.940Z,63.89
2023-03-08T05:22:19.552Z,57.94
2023-03-08T05:24:51.087Z,48.14
2023-03-08T05:27:18.961Z,46.20
2023-03-08T05:29:47.290Z,42.65
2023-03-08T05:32:14.840Z,42.02
2023-03-08T05:34:41.987Z,48.19
2023-03-08T05:37:14.588Z,52.00
2023-03-08T05:39:43.882Z,51.61
2023-03-08T05:42:20.942Z,50.61
2023-03-08T05:44:48.215Z,46.77
2023-03-08T05:47:20.310Z,39.94
2023-03-08T05:49:47.511Z,38.06
2023-03-08T05:52:15.996Z,39.62
2023-03-08T05:54:43.927Z,36.60
2023-03-08T05:57:15.964Z,37.91
2023-03-08T05:59:43.156Z,37.56
2023-03-08T06:02:13.396Z,38.41
2023-03-08T06:04:45.154Z,36.62
2023-03-08T06:07:14.812Z,36.76
2023-03-08T06:09:47.512Z,36.52
2023-03-08T06:12:17.721Z,36.51
2023-03-08T06:14:48.151Z,35.61
2023-03-08T06:17:18.592Z,36.57
2023-03-08T06:19:48.503Z,35.16
2023-03-08T06:22:17.419Z,32.96
2023-03-08T06:24:49.785Z,33.39
2023-03-08T06:27:24.126Z,32.67
2023-03-08T06:29:55.587Z,30.75
2023-03-08T06:32:23.830Z,30.83
2023-03-08T06:34:51.239Z,31.74
2023-03-08T06:37:18.550Z,30.79
2023-03-08T06:39:46.149Z,31.88
2023-03-08T06:42:13.207Z,30.73
2023-03-08T06:44:40.352Z,29.57
2023-03-08T06:47:07.482Z,30.58
2023-03-08T06:49:34.807Z,28.65
2023-03-08T06:52:02.010Z,29.96
2023-03-08T06:54:29.553Z,32.11
2023-03-08T06:56:56.916Z,33.06
2023-03-08T06:59:24.057Z,32.69
2023-03-08T07:01:51.254Z,29.79
2023-03-08T07:04:18.611Z,29.89
2023-03-08T07:06:46.006Z,31.59
2023-03-08T07:09:14.039Z,30.20
2023-03-08T07:11:41.270Z,31.24
2023-03-08T07:14:08.526Z,30.63
2023-03-08T07:16:35.752Z,31.24
2023-03-08T07:19:03.589Z,33.42
2023-03-08T07:21:31.050Z,31.22
2023-03-08T07:23:58.150Z,29.60
2023-03-08T07:26:25.233Z,29.91
2023-03-08T07:28:52.390Z,30.07
2023-03-08T07:31:19.533Z,30.72
2023-03-08T07:33:47.390Z,32.80
2023-03-08T07:36:14.533Z,29.66
2023-03-08T07:38:41.685Z,28.15
2023-03-08T07:41:08.875Z,28.18
2023-03-08T07:43:36.130Z,30.82
2023-03-08T07:46:20.347Z,30.99
2023-03-08T07:48:47.420Z,26.58
2023-03-08T07:51:14.594Z,25.91
2023-03-08T07:53:41.662Z,27.74
2023-03-08T07:56:09.139Z,26.79
2023-03-08T07:58:36.320Z,26.16
2023-03-08T08:01:12.026Z,24.02
2023-03-08T08:03:39.950Z,24.87
2023-03-08T08:06:07.795Z,22.83
2023-03-08T08:08:35.459Z,23.25
2023-03-08T08:11:02.629Z,25.29
2023-03-08T08:13:29.709Z,24.13
2023-03-08T08:16:01.269Z,26.43
2023-03-08T08:18:29.131Z,26.61
2023-03-08T08:21:10.810Z,25.11
2023-03-08T08:23:39.883Z,26.21
2023-03-08T08:26:10.335Z,25.25
2023-03-08T08:28:39.627Z,24.25
2023-03-08T08:31:10.347Z,26.97
2023-03-08T08:33:37.690Z,27.92
2023-03-08T08:36:07.439Z,28.08
2023-03-08T08:38:34.873Z,25.24
2023-03-08T08:41:07.019Z,26.62
2023-03-08T08:43:36.410Z,30.48
2023-03-08T08:46:05.082Z,27.08
2023-03-08T08:48:35.153Z,24.87
2023-03-08T08:51:02.422Z,25.97
2023-03-08T08:53:29.493Z,24.95
2023-03-08T08:55:56.600Z,25.98
2023-03-08T08:58:24.031Z,25.88
2023-03-08T09:00:51.396Z,24.07
2023-03-08T09:03:18.670Z,22.27
2023-03-08T09:05:45.831Z,22.75
2023-03-08T09:08:13.391Z,23.63
2023-03-08T09:10:42.409Z,20.71
2023-03-08T09:13:09.593Z,23.89
2023-03-08T09:15:37.374Z,23.54
2023-03-08T09:18:05.853Z,23.32
2023-03-08T09:20:33.006Z,24.49
2023-03-08T09:23:00.136Z,25.61
2023-03-08T09:25:27.283Z,23.61
2023-03-08T09:27:54.459Z,24.56
2023-03-08T09:30:21.678Z,28.03
2023-03-08T09:32:48.798Z,29.71
2023-03-08T09:35:15.918Z,30.14
2023-03-08T09:37:43.265Z,31.04
2023-03-08T09:40:23.819Z,30.04
2023-03-08T09:42:51.168Z,26.72
2023-03-08T09:45:20.406Z,25.86
2023-03-08T09:48:12.892Z,28.18
2023-03-08T09:50:46.168Z,27.40
2023-03-08T09:53:32.072Z,26.33
2023-03-08T09:56:15.078Z,25.42
2023-03-08T09:58:53.563Z,25.46
2023-03-08T10:01:39.337Z,27.36
2023-03-08T10:04:27.495Z,25.71
2023-03-08T10:07:21.555Z,23.41
2023-03-08T10:10:22.328Z,22.07
2023-03-08T10:13:08.445Z,22.08
2023-03-08T10:15:42.232Z,22.19
2023-03-08T10:18:41.555Z,20.68
2023-03-08T10:21:13.051Z,19.64
2023-03-08T10:23:41.631Z,19.97
2023-03-08T10:26:13.336Z,19.97
2023-03-08T10:28:41.445Z,21.38
2023-03-08T10:31:29.378Z,20.87
2023-03-08T10:34:04.092Z,22.51
2023-03-08T10:36:31.402Z,20.68
2023-03-08T10:38:58.419Z,21.21
2023-03-08T10:41:26.689Z,22.54
2023-03-08T10:43:56.094Z,22.62
2023-03-08T10:46:30.480Z,22.79
2023-03-08T10:49:29.905Z,23.48
2023-03-08T10:51:59.697Z,26.27
2023-03-08T10:54:28.753Z,24.21
2023-03-08T10:56:59.622Z,22.53
2023-03-08T10:59:34.720Z,21.82
2023-03-08T11:02:13.719Z,20.29
2023-03-08T11:04:56.564Z,21.59
2023-03-08T11:07:29.303Z,22.55
2023-03-08T11:10:18.400Z,21.43
2023-03-08T11:12:46.032Z,22.55
2023-03-08T11:15:18.385Z,22.26
2023-03-08T11:18:00.015Z,21.94
2023-03-08T11:21:00.705Z,21.12
2023-03-08T11:23:56.822Z,23.66
2023-03-08T11:26:51.466Z,22.85
2023-03-08T11:29:40.814Z,23.22
2023-03-08T11:32:18.382Z,23.72
2023-03-08T11:35:05.725Z,24.61
2023-03-08T11:37:44.590Z,24.22
2023-03-08T11:40:22.409Z,20.99
2023-03-08T11:43:05.189Z,22.49
2023-03-08T11:46:26.136Z,20.46
2023-03-08T11:49:28.529Z,18.61
2023-03-08T11:52:14.292Z,20.38
2023-03-08T11:54:50.603Z,22.36
2023-03-08T11:57:18.762Z,22.42
2023-03-08T12:00:01.034Z,22.58
2023-03-08T12:02:31.058Z,25.63
2023-03-08T12:05:05.816Z,26.10
2023-03-08T12:07:48.713Z,27.40
2023-03-08T12:10:32.159Z,25.91
2023-03-08T12:13:23.677Z,25.76
2023-03-08T12:16:12.017Z,26.60
2023-03-08T12:19:00.744Z,26.73
2023-03-08T12:21:41.954Z,28.32
2023-03-08T12:24:28.119Z,25.97
2023-03-08T12:27:04.378Z,24.97
2023-03-08T12:29:58.512Z,23.67
2023-03-08T12:32:27.150Z,24.27
2023-03-08T12:35:07.263Z,24.67
2023-03-08T12:37:34.528Z,24.45
2023-03-08T12:40:07.499Z,25.12
2023-03-08T12:42:39.542Z,25.13
2023-03-08T12:45:23.378Z,23.66
2023-03-08T12:48:22.539Z,22.50
2023-03-08T12:51:17.160Z,23.58
2023-03-08T12:53:44.276Z,23.13
2023-03-08T12:56:11.405Z,22.40
2023-03-08T12:58:51.412Z,21.32
2023-03-08T13:01:29.647Z,18.10
2023-03-08T13:03:57.174Z,19.24
2023-03-08T13:06:24.496Z,20.10
2023-03-08T13:08:57.421Z,18.66
2023-03-08T13:11:37.350Z,17.85
2023-03-08T13:14:06.099Z,18.74
2023-03-08T13:16:34.905Z,21.17
2023-03-08T13:19:27.200Z,21.61
2023-03-08T13:21:59.047Z,22.66
2023-03-08T13:24:44.370Z,21.88
2023-03-08T13:27:36.075Z,21.39
2023-03-08T13:30:25.951Z,21.55
2023-03-08T13:32:53.635Z,22.34
2023-03-08T13:35:21.303Z,22.06
2023-03-08T13:38:00.166Z,20.39
2023-03-08T13:40:29.824Z,20.50
2023-03-08T13:43:02.982Z,21.36
2023-03-08T13:45:30.310Z,22.36
2023-03-08T13:48:00.864Z,22.70
2023-03-08T13:50:35.455Z,23.48
2023-03-08T13:53:07.930Z,23.60
2023-03-08T13:55:39.681Z,24.82
2023-03-08T13:58:07.253Z,24.50
2023-03-08T14:00:36.330Z,25.23
2023-03-08T14:03:07.835Z,25.92
2023-03-08T14:05:43.168Z,26.36
2023-03-08T14:08:22.351Z,26.68
2023-03-08T14:10:56.904Z,26.16
2023-03-08T14:13:31.379Z,26.13
2023-03-08T14:16:00.901Z,26.44
2023-03-08T14:18:33.097Z,26.85
2023-03-08T14:21:21.961Z,27.27
2023-03-08T14:23:58.223Z,28.04
2023-03-08T14:26:34.342Z,27.94
2023-03-08T14:29:11.154Z,28.24
2023-03-08T14:31:41.598Z,28.38
2023-03-08T14:34:36.027Z,28.25
2023-03-08T14:37:14.164Z,27.92
2023-03-08T14:39:46.866Z,27.95
2023-03-08T14:42:33.214Z,28.46
2023-03-08T14:45:04.184Z,28.67
2023-03-08T14:47:34.570Z,29.15
2023-03-08T14:50:24.674Z,28.02
2023-03-08T14:52:55.156Z,28.41
2023-03-08T14:55:24.084Z,28.20
2023-03-08T14:57:53.844Z,29.13
2023-03-08T15:00:22.397Z,29.22
2023-03-08T15:02:50.239Z,29.82
2023-03-08T15:05:28.748Z,29.71
2023-03-08T15:07:59.304Z,29.94
2023-03-08T15:10:29.364Z,29.79
2023-03-08T15:12:56.804Z,29.82
2023-03-08T15:15:24.223Z,29.67
2023-03-08T15:17:51.532Z,29.44
2023-03-08T15:20:19.727Z,29.25
2023-03-08T15:22:54.203Z,29.30
2023-03-08T15:25:50.703Z,29.55
2023-03-08T15:28:19.635Z,30.44
2023-03-08T15:30:47.215Z,31.04
2023-03-08T15:33:14.562Z,31.47
2023-03-08T15:35:42.105Z,32.36
2023-03-08T15:38:13.806Z,32.56
2023-03-08T15:40:41.793Z,33.12
2023-03-08T15:43:09.825Z,33.88
2023-03-08T15:45:37.430Z,33.54
2023-03-08T15:48:12.715Z,33.81
2023-03-08T15:50:39.962Z,33.60
2023-03-08T15:53:07.538Z,33.61
2023-03-08T15:55:34.585Z,33.64
2023-03-08T15:58:01.674Z,33.64
2023-03-08T16:00:29.286Z,33.89
2023-03-08T16:02:56.475Z,34.68
2023-03-08T16:05:25.180Z,34.37
2023-03-08T16:07:57.838Z,34.45
2023-03-08T16:10:25.460Z,34.56
2023-03-08T16:12:53.056Z,35.10
2023-03-08T16:15:20.663Z,36.33
2023-03-08T16:17:47.985Z,37.94
2023-03-08T16:20:16.977Z,37.80
2023-03-08T16:22:45.875Z,37.60
2023-03-08T16:25:13.554Z,38.34
2023-03-08T16:27:40.633Z,38.86
2023-03-08T16:30:08.482Z,39.10
2023-03-08T16:32:35.734Z,39.35
2023-03-08T16:35:02.892Z,39.10
2023-03-08T16:37:30.068Z,38.99
2023-03-08T16:40:02.278Z,38.92
2023-03-08T16:42:30.137Z,38.94
2023-03-08T16:44:57.281Z,39.33
2023-03-08T16:47:26.573Z,39.05
2023-03-08T16:49:53.828Z,39.46
2023-03-08T16:52:21.232Z,39.25
2023-03-08T16:54:48.318Z,38.94
2023-03-08T16:57:19.602Z,39.26
2023-03-08T16:59:47.808Z,40.42
2023-03-08T17:02:17.241Z,40.25
2023-03-08T17:04:44.626Z,39.72
2023-03-08T17:07:12.117Z,39.41
2023-03-08T17:09:39.737Z,39.51
2023-03-08T17:12:09.050Z,39.50
2023-03-08T17:14:37.180Z,39.43
2023-03-08T17:17:05.396Z,39.54
2023-03-08T17:19:32.942Z,41.17
2023-03-08T17:22:00.012Z,43.29
2023-03-08T17:24:28.385Z,43.36
2023-03-08T17:26:57.037Z,42.96
2023-03-08T17:29:24.499Z,44.00
2023-03-08T17:31:51.799Z,43.27
2023-03-08T17:34:22.157Z,43.17
2023-03-08T17:36:51.134Z,42.91
2023-03-08T17:39:18.250Z,42.14
2023-03-08T17:41:45.535Z,42.47
2023-03-08T17:44:15.111Z,41.91
2023-03-08T17:46:42.621Z,42.41
2023-03-08T17:49:12.084Z,42.52
2023-03-08T17:51:39.296Z,42.48
2023-03-08T17:54:07.614Z,41.80
2023-03-08T17:56:36.720Z,41.46
2023-03-08T17:59:03.782Z,40.85
2023-03-08T18:01:31.774Z,41.30
2023-03-08T18:03:59.384Z,41.57
2023-03-08T18:06:33.402Z,41.29
2023-03-08T18:09:04.818Z,39.21
2023-03-08T18:11:37.653Z,41.86
2023-03-08T18:14:06.424Z,41.59
2023-03-08T18:16:34.114Z,41.56
2023-03-08T18:19:02.566Z,42.21
2023-03-08T18:21:32.172Z,41.92
2023-03-08T18:23:59.911Z,42.43
2023-03-08T18:26:27.520Z,43.67
2023-03-08T18:28:54.660Z,42.91
2023-03-08T18:31:26.434Z,41.93
2023-03-08T18:33:55.056Z,41.09
2023-03-08T18:36:23.698Z,40.63
2023-03-08T18:38:51.235Z,41.33
2023-03-08T18:41:25.706Z,39.92
2023-03-08T18:43:55.892Z,39.19
2023-03-08T18:46:28.996Z,39.19
2023-03-08T18:49:02.223Z,39.47
2023-03-08T18:51:32.812Z,40.28
2023-03-08T18:54:01.100Z,41.23
2023-03-08T18:56:29.225Z,41.07
2023-03-08T18:59:01.255Z,41.63
2023-03-08T19:01:30.501Z,42.35
2023-03-08T19:04:04.052Z,41.24
2023-03-08T19:06:31.272Z,41.81
2023-03-08T19:08:58.424Z,41.38
2023-03-08T19:11:27.458Z,41.04
2023-03-08T19:13:55.104Z,41.45
2023-03-08T19:16:27.985Z,41.17
2023-03-08T19:19:00.794Z,42.84
2023-03-08T19:21:42.185Z,43.48
2023-03-08T19:24:12.452Z,45.85
2023-03-08T19:26:41.271Z,46.16
2023-03-08T19:29:16.698Z,44.35
2023-03-08T19:31:47.162Z,44.42
2023-03-08T19:34:15.384Z,43.24
2023-03-08T19:36:44.427Z,42.81
2023-03-08T19:39:20.079Z,42.19
2023-03-08T19:41:55.627Z,41.54
2023-03-08T19:44:23.801Z,41.27
2023-03-08T19:46:51.367Z,41.20
2023-03-08T19:49:21.094Z,41.10
2023-03-08T19:51:49.497Z,40.75
2023-03-08T19:54:16.975Z,41.00
2023-03-08T19:56:44.672Z,46.40
2023-03-08T19:59:12.220Z,46.40
2023-03-08T20:01:39.666Z,47.20
2023-03-08T20:04:07.977Z,45.84
2023-03-08T20:06:38.996Z,44.99
2023-03-08T20:09:08.605Z,44.49
2023-03-08T20:11:35.800Z,43.80
2023-03-08T20:14:03.246Z,43.25
2023-03-08T20:16:31.397Z,44.38
2023-03-08T20:18:58.685Z,44.57
2023-03-08T20:21:29.753Z,44.44
2023-03-08T20:23:59.736Z,44.64
2023-03-08T20:26:31.331Z,45.79
2023-03-08T20:28:59.535Z,48.60
2023-03-08T20:31:28.732Z,49.70
2023-03-08T20:33:56.290Z,48.30
2023-03-08T20:36:23.921Z,48.51
2023-03-08T20:38:51.275Z,48.81
2023-03-08T20:41:20.716Z,51.53
2023-03-08T20:43:50.019Z,54.56
2023-03-08T20:46:19.881Z,57.11
2023-03-08T20:48:47.265Z,60.89
2023-03-08T20:51:16.890Z,63.02
2023-03-08T20:53:45.054Z,61.27
2023-03-08T20:56:14.802Z,59.30
2023-03-08T20:58:42.682Z,58.19
2023-03-08T21:01:25.003Z,56.50
2023-03-08T21:03:52.186Z,55.90
2023-03-08T21:06:22.741Z,52.98
2023-03-08T21:08:50.591Z,51.82
2023-03-08T21:11:18.206Z,51.02
2023-03-08T21:13:48.177Z,49.93
2023-03-08T21:16:16.858Z,48.91
2023-03-08T21:18:46.102Z,48.13
2023-03-08T21:21:33.134Z,49.71
2023-03-08T21:24:03.212Z,50.73
2023-03-08T21:26:31.334Z,50.26
2023-03-08T21:29:04.397Z,50.30
2023-03-08T21:31:33.445Z,50.79
2023-03-08T21:34:06.137Z,50.62
2023-03-08T21:36:34.060Z,50.84
2023-03-08T21:39:01.195Z,51.21
2023-03-08T21:41:30.807Z,50.33
2023-03-08T21:43:58.277Z,49.83
2023-03-08T21:46:25.938Z,49.70
2023-03-08T21:48:55.085Z,49.30
2023-03-08T21:51:22.933Z,49.05
2023-03-08T21:53:50.312Z,50.06
2023-03-08T21:56:18.603Z,48.75
2023-03-08T21:58:46.219Z,48.71
2023-03-08T22:01:22.204Z,49.94
2023-03-08T22:03:49.904Z,50.60
2023-03-08T22:06:17.384Z,50.49
2023-03-08T22:08:44.889Z,51.32
2023-03-08T22:11:12.184Z,50.54
2023-03-08T22:13:39.378Z,52.39
2023-03-08T22:16:06.767Z,52.57
2023-03-08T22:18:34.300Z,53.38
2023-03-08T22:21:01.417Z,53.03
2023-03-08T22:23:28.530Z,52.78
2023-03-08T22:25:55.736Z,52.44
2023-03-08T22:28:22.842Z,52.81
2023-03-08T22:30:49.979Z,52.69
2023-03-08T22:33:17.188Z,53.84
2023-03-08T22:35:46.074Z,54.35
2023-03-08T22:38:13.837Z,52.99
2023-03-08T22:40:42.448Z,54.25
2023-03-08T22:43:10.507Z,52.83
2023-03-08T22:45:37.707Z,52.95
2023-03-08T22:48:06.984Z,53.13
2023-03-08T22:50:34.259Z,52.47
2023-03-08T22:53:01.656Z,51.40
2023-03-08T22:55:28.785Z,50.70
2023-03-08T22:57:55.859Z,52.17
2023-03-08T23:00:23.017Z,51.11
2023-03-08T23:02:50.270Z,51.61
2023-03-08T23:05:20.002Z,51.46
2023-03-08T23:07:47.683Z,51.84
2023-03-08T23:10:16.223Z,50.83
2023-03-08T23:12:43.260Z,51.00
2023-03-08T23:15:10.756Z,50.53
2023-03-08T23:17:37.877Z,50.13
2023-03-08T23:20:05.851Z,49.82
2023-03-08T23:22:33.288Z,51.15
2023-03-08T23:25:00.414Z,51.69
2023-03-08T23:27:27.584Z,52.34
2023-03-08T23:29:54.633Z,50.69
2023-03-08T23:32:22.017Z,50.35
2023-03-08T23:34:49.121Z,49.97
2023-03-08T23:37:16.164Z,49.58
2023-03-08T23:39:43.210Z,50.13
2023-03-08T23:42:10.251Z,49.87
2023-03-08T23:44:38.070Z,49.31
2023-03-08T23:47:05.347Z,49.96
2023-03-08T23:49:32.491Z,49.53
2023-03-08T23:51:59.746Z,49.38
2023-03-08T23:54:26.958Z,50.36
2023-03-08T23:56:54.071Z,50.56
2023-03-08T23:59:23.288Z,49.51
